Fairhaven, Maryland
Current Conditions -  °F | °C
As of 3:54 PM on Monday 24 Nov 2014 (Local Time) from KNAK Reporting Station
Clear Clear  
Wind Chill: 63°   Ceiling: Unl
Heat Index: 63°   Visibility: 10mi
Dew Point: 51°   Wind: 13mph
Humidity: 65%   Direction: 160°SSE
Pressure: 29.65"   Gusts: NA
Location:  38.7736°N, 76.5792°W
Report Text: KNAK 242054Z AUTO 16011KT 10SM CLR 17/11 A2965 RMK AO2 SLP042 T01720106 53004
Loading
Personal Weather Stations






























Interactive Weather Map New forecast layout! Learn more

10-Day Weather Forecast

Advertisements
Track Severe Weather on mobile